Time;durP1;ratioP1;P1;durP2;ratioP2;P2;SDS_P1;SDS_P2;PMS_P1;PMS_P2;Temp;Humidity;BMP_temperature;BMP_pressure;BME280_temperature;BME280_humidity;BME280_pressure;Samples;Min_cycle;Max_cycle;Signal;HPM_P1;HPM_P2
2022/05/15 00:00:41;;;;;;;0.50;0.50;;;;;;;8.19;61.24;97945.53;5113806;28;20047;-81
2022/05/15 00:03:11;;;;;;;0.50;0.50;;;;;;;8.17;61.40;97936.91;5114349;28;20048;-81
2022/05/15 00:05:38;;;;;;;0.50;0.50;;;;;;;8.18;61.28;97938.53;5113933;28;20138;-81
2022/05/15 00:08:06;;;;;;;0.50;0.50;;;;;;;8.30;60.95;97941.03;5114291;28;20506;-82
2022/05/15 00:10:33;;;;;;;0.50;0.50;;;;;;;8.36;60.71;97940.03;5113936;28;20505;-81
2022/05/15 00:13:00;;;;;;;0.50;0.50;;;;;;;8.40;60.41;97930.41;5114234;28;20081;-81
2022/05/15 00:15:29;;;;;;;0.50;0.50;;;;;;;8.42;60.46;97930.16;5113640;28;20105;-81
2022/05/15 00:17:56;;;;;;;0.50;0.50;;;;;;;8.43;60.45;97931.78;5095594;28;20134;-81
2022/05/15 00:20:25;;;;;;;0.50;0.50;;;;;;;8.40;60.38;97924.22;5113784;28;20055;-80
2022/05/15 00:22:52;;;;;;;0.50;0.50;;;;;;;8.46;60.43;97924.03;5045714;28;20043;-81
2022/05/15 00:25:20;;;;;;;0.50;0.50;;;;;;;8.49;60.20;97927.28;5113628;28;20074;-80
2022/05/15 00:27:47;;;;;;;0.50;0.50;;;;;;;8.51;60.29;97920.56;5113583;28;20052;-81
2022/05/15 00:30:17;;;;;;;0.50;0.50;;;;;;;8.55;60.46;97928.91;5113878;28;20202;-81
2022/05/15 00:32:45;;;;;;;0.50;0.50;;;;;;;8.55;60.41;97928.91;5078412;28;20126;-81
2022/05/15 00:35:12;;;;;;;0.50;0.50;;;;;;;8.49;60.35;97919.22;5095151;28;20108;-81
2022/05/15 00:37:39;;;;;;;0.50;0.50;;;;;;;8.53;60.30;97920.28;5094365;28;20142;-80
2022/05/15 00:40:08;;;;;;;0.50;0.50;;;;;;;8.50;60.39;97923.50;5092837;28;20044;-81
2022/05/15 00:42:35;;;;;;;0.50;0.50;;;;;;;8.50;60.53;97918.94;5074992;28;20078;-81
2022/05/15 00:45:05;;;;;;;0.40;0.40;;;;;;;8.54;60.49;97925.44;5070222;28;20052;-80
2022/05/15 00:47:33;;;;;;;0.50;0.50;;;;;;;8.49;60.27;97913.81;5036938;28;20056;-81
2022/05/15 00:50:03;;;;;;;0.50;0.50;;;;;;;8.37;60.59;97904.00;5070238;28;20155;-80
2022/05/15 00:52:35;;;;;;;0.50;0.50;;;;;;;8.51;60.78;97919.72;5053910;28;20040;-80
2022/05/15 00:55:25;;;;;;;0.50;0.50;;;;;;;8.35;60.75;97894.59;5054084;28;20064;-82
2022/05/15 00:57:57;;;;;;;0.50;0.50;;;;;;;8.31;60.77;97888.94;5034890;28;20040;-81
2022/05/15 01:00:27;;;;;;;0.50;0.50;;;;;;;8.47;60.75;97903.31;5069850;28;20118;-82
2022/05/15 01:03:07;;;;;;;0.50;0.50;;;;;;;8.44;60.56;97901.16;5020625;28;20051;-81
2022/05/15 01:05:36;;;;;;;0.50;0.50;;;;;;;8.44;60.85;97909.22;5069529;28;20044;-81
2022/05/15 01:08:06;;;;;;;0.50;0.50;;;;;;;8.44;60.88;97906.53;5053234;28;20511;-80
2022/05/15 01:10:35;;;;;;;0.50;0.50;;;;;;;8.43;60.72;97911.09;5052925;28;20068;-80
2022/05/15 01:13:02;;;;;;;0.50;0.50;;;;;;;8.45;60.77;97908.94;5036626;28;20090;-80
2022/05/15 01:15:29;;;;;;;0.50;0.50;;;;;;;8.45;60.77;97917.00;5057932;28;20063;-81
2022/05/15 01:17:59;;;;;;;0.50;0.50;;;;;;;8.45;60.84;97910.81;5074522;28;20549;-81
2022/05/15 01:20:30;;;;;;;0.50;0.50;;;;;;;8.43;60.83;97903.03;5057266;28;20052;-82
2022/05/15 01:22:58;;;;;;;0.50;0.50;;;;;;;8.44;60.86;97909.22;5058262;28;20097;-81
2022/05/15 01:25:31;;;;;;;0.50;0.50;;;;;;;8.43;60.47;97908.41;5073758;28;20403;-81
2022/05/15 01:28:02;;;;;;;0.50;0.50;;;;;;;8.40;60.71;97908.09;5091865;28;20051;-81
2022/05/15 01:30:31;;;;;;;0.50;0.50;;;;;;;8.37;60.98;97909.38;5073996;28;20160;-81
2022/05/15 01:32:58;;;;;;;0.52;0.52;;;;;;;8.33;61.22;97907.47;5091746;28;20503;-81
2022/05/15 01:35:26;;;;;;;0.50;0.50;;;;;;;8.32;60.89;97905.84;5073591;28;20055;-81
2022/05/15 01:38:00;;;;;;;0.50;0.50;;;;;;;8.28;61.07;97902.06;5073940;28;20048;-81
2022/05/15 01:40:28;;;;;;;0.52;0.52;;;;;;;8.25;61.27;97889.94;5073390;28;20055;-81
2022/05/15 01:42:56;;;;;;;0.50;0.50;;;;;;;8.31;61.36;97906.94;5057002;28;20139;-82
2022/05/15 01:45:23;;;;;;;0.50;0.50;;;;;;;8.17;61.54;97890.41;5091764;28;20141;-82
2022/05/15 01:47:52;;;;;;;0.50;0.50;;;;;;;8.28;61.70;97907.44;5073596;28;20052;-81
2022/05/15 01:50:22;;;;;;;0.40;0.40;;;;;;;8.27;61.68;97908.50;5073440;28;20048;-80
2022/05/15 01:52:49;;;;;;;0.50;0.50;;;;;;;8.19;61.38;97897.16;5056852;28;20048;-80
2022/05/15 01:55:17;;;;;;;0.50;0.50;;;;;;;8.21;61.95;97905.78;5073511;28;20075;-80
2022/05/15 01:57:44;;;;;;;0.50;0.50;;;;;;;8.16;62.07;97908.41;5056416;28;20050;-79
2022/05/15 02:00:19;;;;;;;0.50;0.50;;;;;;;8.15;62.09;97904.13;5074054;28;20054;-80
2022/05/15 02:02:48;;;;;;;0.50;0.50;;;;;;;8.12;62.16;97899.22;5073201;28;20044;-80
2022/05/15 02:05:17;;;;;;;0.50;0.50;;;;;;;8.17;62.11;97910.03;5073432;28;20052;-81
2022/05/15 02:07:45;;;;;;;0.50;0.50;;;;;;;8.21;61.80;97908.47;5091127;28;20054;-81
2022/05/15 02:10:13;;;;;;;0.50;0.50;;;;;;;8.22;62.11;97906.56;5073679;28;20521;-80
2022/05/15 02:12:40;;;;;;;0.50;0.50;;;;;;;8.17;61.62;97895.78;5090955;28;20388;-81
2022/05/15 02:15:10;;;;;;;0.50;0.50;;;;;;;8.25;61.79;97906.06;5057209;28;20072;-81
2022/05/15 02:17:37;;;;;;;0.60;0.60;;;;;;;8.30;61.78;97903.41;5073582;28;20094;-82
2022/05/15 02:20:10;;;;;;;0.57;0.57;;;;;;;8.31;61.60;97905.06;5073260;28;20518;-81
2022/05/15 02:22:39;;;;;;;0.50;0.50;;;;;;;8.43;61.24;97904.88;5090999;28;20054;-80
2022/05/15 02:25:08;;;;;;;0.50;0.50;;;;;;;8.42;61.02;97900.59;5056610;28;20139;-81
2022/05/15 02:27:41;;;;;;;0.57;0.57;;;;;;;8.50;60.90;97902.78;5073001;28;20105;-80
2022/05/15 02:30:10;;;;;;;0.60;0.60;;;;;;;8.52;60.89;97902.56;5073017;28;20131;-81
2022/05/15 02:32:37;;;;;;;0.50;0.50;;;;;;;8.59;60.99;97900.47;5073133;28;20040;-81
2022/05/15 02:35:06;;;;;;;0.50;0.50;;;;;;;8.64;60.87;97903.97;5056096;28;20056;-81
2022/05/15 02:37:34;;;;;;;0.60;0.60;;;;;;;8.57;60.61;97892.63;5072788;28;20585;-80
2022/05/15 02:40:02;;;;;;;0.50;0.50;;;;;;;8.54;60.68;97897.72;5091298;28;20131;-81
2022/05/15 02:42:29;;;;;;;0.50;0.50;;;;;;;8.54;60.98;97906.59;5055980;28;20044;-80
2022/05/15 02:44:56;;;;;;;0.50;0.50;;;;;;;8.48;60.90;97912.19;5056453;28;20525;-80
2022/05/15 02:47:24;;;;;;;0.50;0.50;;;;;;;8.41;61.34;97910.53;5072883;28;20097;-81
2022/05/15 02:52:37;;;;;;;0.60;0.60;;;;;;;8.23;61.80;97903.66;5072592;28;20132;-80
2022/05/15 02:55:04;;;;;;;0.50;0.50;;;;;;;8.16;62.29;97911.09;5072602;28;20394;-81
2022/05/15 02:57:32;;;;;;;0.50;0.50;;;;;;;8.12;62.62;97906.50;5090271;28;20153;-79
2022/05/15 03:00:00;;;;;;;0.50;0.50;;;;;;;8.09;62.57;97904.31;5072533;28;20040;-80
2022/05/15 03:02:28;;;;;;;0.50;0.50;;;;;;;8.01;62.65;97900.22;5055722;28;20078;-80
2022/05/15 03:04:55;;;;;;;0.60;0.60;;;;;;;8.19;62.47;97915.16;5039797;28;20056;-81
2022/05/15 03:07:23;;;;;;;0.60;0.60;;;;;;;8.10;62.44;97885.25;5090807;28;20121;-81
2022/05/15 03:09:50;;;;;;;0.60;0.60;;;;;;;8.37;61.98;97913.97;5058079;28;20537;-79
2022/05/15 03:12:17;;;;;;;0.50;0.50;;;;;;;8.41;61.84;97917.81;5076912;28;20094;-80
2022/05/15 03:14:45;;;;;;;0.60;0.60;;;;;;;8.45;61.89;97921.56;5060215;28;20070;-80
2022/05/15 03:17:12;;;;;;;0.60;0.60;;;;;;;8.57;61.67;97914.16;5094760;28;20060;-79
2022/05/15 03:19:39;;;;;;;0.50;0.50;;;;;;;8.72;60.88;97899.19;5076360;28;20048;-80
2022/05/15 03:22:07;;;;;;;0.52;0.52;;;;;;;8.88;60.67;97914.34;5094532;28;20098;-80
2022/05/15 03:24:34;;;;;;;0.52;0.52;;;;;;;8.94;60.39;97913.31;5059688;28;20085;-80
2022/05/15 03:27:02;;;;;;;0.50;0.50;;;;;;;8.85;60.26;97896.84;5076077;28;20048;-81
2022/05/15 03:29:29;;;;;;;0.50;0.50;;;;;;;9.03;60.32;97919.81;5094159;28;20105;-79
2022/05/15 03:31:56;;;;;;;0.50;0.50;;;;;;;8.98;60.64;97913.59;5076295;28;20056;-82
2022/05/15 03:34:24;;;;;;;0.60;0.60;;;;;;;8.89;60.64;97905.22;5076246;28;20044;-81
2022/05/15 03:36:52;;;;;;;0.50;0.50;;;;;;;9.00;60.42;97922.22;5076987;28;20044;-82
2022/05/15 03:39:21;;;;;;;0.60;0.60;;;;;;;9.01;60.51;97915.75;5096157;28;20052;-81
2022/05/15 03:41:49;;;;;;;0.50;0.50;;;;;;;9.07;60.30;97923.63;5077791;28;20154;-80
2022/05/15 03:44:17;;;;;;;0.55;0.55;;;;;;;9.15;60.21;97922.31;5076053;28;20367;-81
2022/05/15 03:46:46;;;;;;;0.60;0.60;;;;;;;9.16;60.45;97923.91;5059252;28;20548;-81
2022/05/15 03:49:13;;;;;;;0.50;0.50;;;;;;;9.21;60.25;97925.84;5093966;28;20066;-80
2022/05/15 03:51:42;;;;;;;0.50;0.50;;;;;;;9.24;60.06;97918.06;5075601;28;20040;-82
2022/05/15 03:54:09;;;;;;;0.50;0.50;;;;;;;9.26;60.01;97921.28;5075452;28;20143;-81
2022/05/15 03:56:50;;;;;;;0.52;0.52;;;;;;;9.36;59.82;97925.91;5075477;28;20047;-80
2022/05/15 03:59:24;;;;;;;0.50;0.50;;;;;;;9.40;59.92;97924.31;5060930;28;20070;-82
2022/05/15 04:01:51;;;;;;;0.60;0.60;;;;;;;9.44;59.68;97911.94;5093206;28;20044;-81
2022/05/15 04:04:18;;;;;;;0.60;0.60;;;;;;;9.38;59.65;97893.34;5093462;28;20044;-81
2022/05/15 04:06:46;;;;;;;0.60;0.60;;;;;;;9.44;59.34;97893.06;5058666;28;20048;-81
2022/05/15 04:09:13;;;;;;;0.60;0.60;;;;;;;9.51;59.35;97914.38;5094137;28;20040;-83
2022/05/15 04:11:41;;;;;;;0.50;0.50;;;;;;;9.48;59.32;97913.03;5094073;28;20078;-81
2022/05/15 04:14:08;;;;;;;0.50;0.50;;;;;;;9.58;59.44;97916.84;5075526;28;20048;-81
2022/05/15 04:16:36;;;;;;;0.57;0.57;;;;;;;9.65;59.07;97922.78;5075024;28;20151;-82
2022/05/15 04:19:04;;;;;;;0.50;0.50;;;;;;;9.75;58.96;97926.31;5058965;28;20457;-82
2022/05/15 04:21:41;;;;;;;0.57;0.57;;;;;;;9.78;58.90;97916.91;5074334;28;20529;-81
2022/05/15 04:24:11;;;;;;;0.50;0.50;;;;;;;9.94;58.83;97926.63;5071845;28;20048;-83
2022/05/15 04:26:39;;;;;;;0.60;0.60;;;;;;;9.93;58.51;97914.25;5075141;28;20059;-81
2022/05/15 04:29:08;;;;;;;0.60;0.60;;;;;;;10.09;58.31;97916.97;5057918;28;20139;-81
2022/05/15 04:31:36;;;;;;;0.50;0.50;;;;;;;10.31;57.85;97916.75;5074613;28;20537;-81
2022/05/15 04:34:05;;;;;;;0.60;0.60;;;;;;;10.44;57.71;97918.09;5093079;28;20511;-80
2022/05/15 04:36:33;;;;;;;0.60;0.60;;;;;;;10.60;57.44;97922.38;5090939;28;20048;-82
2022/05/15 04:39:01;;;;;;;0.52;0.52;;;;;;;10.72;56.98;97925.63;5092596;28;20047;-81
2022/05/15 04:41:29;;;;;;;0.60;0.60;;;;;;;10.65;57.03;97919.69;5074768;28;20059;-83
2022/05/15 04:43:56;;;;;;;0.60;0.60;;;;;;;10.70;57.24;97914.28;5092690;28;20395;-83
2022/05/15 04:46:27;;;;;;;0.50;0.50;;;;;;;10.90;56.96;97923.44;5040671;28;20501;-82
2022/05/15 04:48:54;;;;;;;0.50;0.50;;;;;;;10.80;56.64;97908.06;5095726;28;20137;-83
2022/05/15 04:51:21;;;;;;;0.60;0.60;;;;;;;10.78;56.49;97908.31;5099641;28;20067;-80
2022/05/15 04:53:48;;;;;;;0.50;0.50;;;;;;;10.83;56.47;97921.81;5073108;28;20048;-82
2022/05/15 04:56:16;;;;;;;0.50;0.50;;;;;;;10.74;56.84;97922.66;5091892;28;20521;-82
2022/05/15 04:58:43;;;;;;;0.52;0.52;;;;;;;10.58;57.08;97902.97;5090282;28;20047;-80
2022/05/15 05:01:10;;;;;;;0.50;0.50;;;;;;;10.61;57.19;97914.03;5076763;28;20079;-82
2022/05/15 05:03:37;;;;;;;0.50;0.50;;;;;;;10.51;57.21;97899.75;5100273;28;20237;-82
2022/05/15 05:06:05;;;;;;;0.40;0.40;;;;;;;10.62;57.44;97906.75;5099932;28;20058;-83
2022/05/15 05:08:32;;;;;;;0.50;0.50;;;;;;;10.78;57.59;97921.81;5102699;28;20040;-81
2022/05/15 05:11:02;;;;;;;0.50;0.50;;;;;;;10.76;57.32;97905.13;5082311;28;20043;-82
2022/05/15 05:13:29;;;;;;;0.50;0.50;;;;;;;10.84;56.95;97933.44;5098807;28;20432;-84
2022/05/15 05:15:56;;;;;;;0.50;0.50;;;;;;;10.63;57.29;97919.16;5073175;28;20056;-86
2022/05/15 05:18:24;;;;;;;0.40;0.40;;;;;;;10.74;57.52;97928.06;5091558;28;20048;-84
2022/05/15 05:20:51;;;;;;;0.47;0.47;;;;;;;10.73;57.30;97921.03;5073488;28;20512;-85
2022/05/15 05:23:18;;;;;;;0.50;0.50;;;;;;;10.81;57.51;97924.00;5083949;28;20047;-85
2022/05/15 05:25:45;;;;;;;0.50;0.50;;;;;;;10.91;57.16;97935.84;4722925;28;10000179;-85
2022/05/15 05:28:14;;;;;;;0.50;0.50;;;;;;;10.79;57.21;97920.75;5090294;28;20043;-83
2022/05/15 05:30:42;;;;;;;0.50;0.50;;;;;;;10.77;57.08;97916.72;5079581;28;20043;-86
2022/05/15 05:33:11;;;;;;;0.50;0.50;;;;;;;10.80;57.24;97916.16;5080691;28;20456;-86
2022/05/15 05:35:40;;;;;;;0.60;0.60;;;;;;;10.80;57.36;97911.56;5087475;28;20048;-84
2022/05/15 05:38:07;;;;;;;0.50;0.50;;;;;;;10.95;57.29;97924.22;5103408;28;20522;-82
2022/05/15 05:40:34;;;;;;;0.47;0.47;;;;;;;10.94;57.43;97905.59;5099351;28;20055;-82
2022/05/15 05:43:01;;;;;;;0.50;0.50;;;;;;;10.96;57.81;97908.84;5080507;28;20051;-82
2022/05/15 05:45:29;;;;;;;0.45;0.45;;;;;;;10.99;57.84;97925.31;5107457;28;20047;-83
2022/05/15 05:47:57;;;;;;;0.50;0.50;;;;;;;10.94;57.82;97927.19;5107851;28;20047;-89
2022/05/15 05:50:26;;;;;;;0.50;0.50;;;;;;;10.78;58.66;97923.72;5087811;28;20051;-86
2022/05/15 05:52:54;;;;;;;0.50;0.50;;;;;;;10.74;58.27;97928.88;5093915;28;20048;-83
2022/05/15 05:55:22;;;;;;;0.55;0.55;;;;;;;11.07;57.93;97927.44;5086510;28;20048;-84
2022/05/15 05:57:49;;;;;;;0.60;0.60;;;;;;;11.42;56.53;97911.38;5056575;28;20062;-84
2022/05/15 06:00:31;;;;;;;0.60;0.60;;;;;;;11.87;55.30;97913.09;5089823;28;20043;-83
2022/05/15 06:05:46;;;;;;;0.60;0.60;;;;;;;12.06;54.29;97910.56;5059771;28;20044;-84
2022/05/15 06:08:13;;;;;;;0.40;0.40;;;;;;;12.20;53.84;97916.13;5108254;28;20059;-83
2022/05/15 06:10:41;;;;;;;0.50;0.50;;;;;;;12.28;54.07;97912.00;5106779;28;20048;-83
2022/05/15 06:13:08;;;;;;;0.60;0.60;;;;;;;12.43;53.27;97903.81;5088800;28;20055;-83
2022/05/15 06:15:37;;;;;;;0.60;0.60;;;;;;;12.72;52.50;97900.28;5084687;28;20403;-86
2022/05/15 06:18:05;;;;;;;0.50;0.50;;;;;;;12.91;51.93;97924.75;5059783;28;20503;-82
2022/05/15 06:20:33;;;;;;;0.50;0.50;;;;;;;12.65;52.27;97905.22;5068690;28;20748;-82
2022/05/15 06:23:00;;;;;;;0.50;0.50;;;;;;;12.71;52.33;97909.50;5071036;28;20501;-82
2022/05/15 06:25:27;;;;;;;0.50;0.50;;;;;;;12.79;52.81;97903.47;5095437;28;20445;-82
2022/05/15 06:27:54;;;;;;;0.50;0.50;;;;;;;12.77;51.69;97913.78;5037717;22;20058;-83
2022/05/15 06:30:23;;;;;;;0.50;0.50;;;;;;;12.80;51.67;97916.72;4990215;28;20512;-83
2022/05/15 06:32:51;;;;;;;0.50;0.50;;;;;;;12.85;51.97;97921.28;4972979;28;20104;-87
2022/05/15 06:35:18;;;;;;;0.45;0.45;;;;;;;12.96;51.70;97901.16;4988919;28;20050;-82
2022/05/15 06:37:45;;;;;;;0.50;0.50;;;;;;;13.26;50.38;97904.59;4979809;28;20047;-83
2022/05/15 06:40:13;;;;;;;0.50;0.50;;;;;;;13.52;49.33;97898.88;4987972;28;20038;-82
2022/05/15 06:42:41;;;;;;;0.50;0.50;;;;;;;13.84;48.82;97914.47;4972958;28;20080;-82
2022/05/15 06:45:10;;;;;;;0.50;0.50;;;;;;;13.70;48.74;97917.09;4981681;28;20082;-81
2022/05/15 06:47:38;;;;;;;0.45;0.45;;;;;;;13.60;48.91;97907.19;4974064;28;20161;-80
2022/05/15 06:50:07;;;;;;;0.50;0.50;;;;;;;13.33;49.32;97907.78;4995899;28;20042;-82
2022/05/15 06:52:35;;;;;;;0.40;0.40;;;;;;;13.09;49.48;97909.66;5008259;28;20088;-80
2022/05/15 06:55:04;;;;;;;0.40;0.40;;;;;;;13.04;48.34;97913.25;5010814;28;20057;-81
2022/05/15 06:57:33;;;;;;;0.50;0.50;;;;;;;12.99;48.00;97905.97;4993280;28;20478;-81
2022/05/15 07:00:11;;;;;;;0.40;0.40;;;;;;;13.14;46.93;97886.06;5010074;28;20054;-81
2022/05/15 07:02:41;;;;;;;0.50;0.50;;;;;;;13.36;45.92;97896.38;4994101;28;20046;-83
2022/05/15 07:05:21;;;;;;;0.50;0.50;;;;;;;13.73;44.22;97910.31;4994117;28;20057;-83
2022/05/15 07:07:48;;;;;;;0.50;0.50;;;;;;;14.13;42.60;97900.78;5009095;28;20111;-82
2022/05/15 07:10:15;;;;;;;0.50;0.50;;;;;;;14.01;42.92;97906.63;5010840;28;20432;-82
2022/05/15 07:12:43;;;;;;;0.50;0.50;;;;;;;13.82;42.78;97884.13;4992670;28;20081;-83
2022/05/15 07:15:11;;;;;;;0.50;0.50;;;;;;;14.06;42.42;97894.91;4993334;28;20065;-81
2022/05/15 07:17:38;;;;;;;0.50;0.50;;;;;;;14.05;42.35;97891.41;5011128;28;20054;-81
2022/05/15 07:20:09;;;;;;;0.43;0.43;;;;;;;14.23;42.46;97889.75;5009627;28;20153;-81
2022/05/15 07:22:36;;;;;;;0.47;0.47;;;;;;;14.34;42.39;97901.25;5010386;28;20560;-80
2022/05/15 07:25:04;;;;;;;0.40;0.40;;;;;;;14.18;42.78;97894.44;4976043;28;20139;-81
2022/05/15 07:27:32;;;;;;;0.40;0.40;;;;;;;14.23;42.96;97894.38;5010258;28;20432;-81
2022/05/15 07:30:01;;;;;;;0.50;0.50;;;;;;;14.39;42.73;97884.09;4992528;28;20168;-80
2022/05/15 07:32:28;;;;;;;0.50;0.50;;;;;;;14.52;42.80;97886.84;4933472;29;20055;-82
2022/05/15 07:34:56;;;;;;;0.60;0.60;;;;;;;15.04;42.29;97889.50;4948898;29;20051;-81
2022/05/15 07:37:27;;;;;;;0.45;0.45;;;;;;;15.46;41.35;97886.75;4948577;29;20055;-80
2022/05/15 07:39:54;;;;;;;0.70;0.70;;;;;;;15.91;40.56;97887.72;4949310;29;20054;-80
2022/05/15 07:42:21;;;;;;;0.60;0.60;;;;;;;16.25;39.34;97861.88;4932567;29;20437;-82
2022/05/15 07:44:48;;;;;;;0.63;0.63;;;;;;;16.60;39.03;97857.47;4949029;29;20078;-82
2022/05/15 07:47:16;;;;;;;0.40;0.40;;;;;;;16.30;38.01;97869.94;4949173;28;20514;-82
2022/05/15 07:49:43;;;;;;;0.50;0.50;;;;;;;15.73;37.00;97861.47;4948419;29;20153;-81
2022/05/15 07:52:11;;;;;;;0.70;0.70;;;;;;;15.86;36.84;97881.59;4925444;29;20110;-80
2022/05/15 07:54:38;;;;;;;0.70;0.70;;;;;;;16.11;36.20;97869.31;4947587;29;20109;-83
2022/05/15 07:57:08;;;;;;;0.63;0.63;;;;;;;16.34;35.53;97857.31;4934715;29;20103;-81
2022/05/15 07:59:38;;;;;;;0.70;0.70;;;;;;;16.53;36.01;97878.09;4951649;29;20641;-82
2022/05/15 08:02:06;;;;;;;0.70;0.70;;;;;;;16.76;36.05;97873.41;4939644;29;20447;-80
2022/05/15 08:10:10;;;;;;;0.70;0.70;;;;;;;17.64;34.60;97857.09;4985352;28;20053;-83
2022/05/15 08:12:37;;;;;;;0.40;0.40;;;;;;;17.16;34.30;97860.66;4972016;28;20453;-82
2022/05/15 08:15:07;;;;;;;0.40;0.40;;;;;;;16.35;35.56;97869.81;4972339;28;20506;-83
2022/05/15 08:17:34;;;;;;;0.40;0.40;;;;;;;15.43;37.76;97873.78;4989838;28;20038;-83
2022/05/15 08:25:34;;;;;;;0.80;0.80;;;;;;;16.16;36.77;97866.50;4922971;28;20483;-82
2022/05/15 08:28:01;;;;;;;0.70;0.70;;;;;;;16.89;35.86;97857.03;4983657;28;20497;-82
2022/05/15 08:30:28;;;;;;;0.40;0.40;;;;;;;16.30;35.79;97850.88;4990437;28;20050;-82
2022/05/15 08:32:55;;;;;;;0.40;0.40;;;;;;;15.68;35.08;97864.28;4959239;28;20042;-83
2022/05/15 08:35:22;;;;;;;0.40;0.40;;;;;;;15.20;36.48;97856.59;4974525;28;20081;-83
2022/05/15 08:37:50;;;;;;;0.50;0.50;;;;;;;15.08;37.50;97855.16;4970777;28;20065;-82
2022/05/15 08:40:24;;;;;;;0.70;0.70;;;;;;;16.23;36.62;97878.56;4972115;28;20053;-82
2022/05/15 08:42:56;;;;;;;;;;;;;;;16.95;35.65;97854.16;4956653;28;20046;-82
2022/05/15 08:45:26;;;;;;;0.80;0.80;;;;;;;17.20;35.41;97839.81;4988921;28;19940;-82
2022/05/15 08:48:02;;;;;;;0.70;0.70;;;;;;;17.45;35.09;97857.38;4971098;28;20046;-81
2022/05/15 08:50:34;;;;;;;0.50;0.50;;;;;;;17.42;34.79;97857.19;4989125;28;20050;-82
2022/05/15 08:53:14;;;;;;;0.70;0.70;;;;;;;17.59;35.06;97829.16;4989101;28;20513;-80
2022/05/15 08:55:49;;;;;;;0.90;0.90;;;;;;;17.91;34.75;97847.03;4972275;28;20132;-81
2022/05/15 08:58:38;;;;;;;0.70;0.70;;;;;;;18.79;33.55;97848.56;4988691;28;20509;-81
2022/05/15 09:01:07;;;;;;;0.73;0.73;;;;;;;19.02;33.27;97838.97;4987795;28;20066;-82
2022/05/15 09:03:37;;;;;;;0.70;0.70;;;;;;;19.08;32.14;97847.00;4971698;28;20049;-84
2022/05/15 09:06:10;;;;;;;0.60;0.60;;;;;;;19.41;31.61;97856.16;4987179;28;20050;-82
2022/05/15 09:09:10;;;;;;;0.68;0.68;;;;;;;19.24;29.68;97848.03;4987401;28;20074;-81
2022/05/15 09:11:46;;;;;;;0.70;0.70;;;;;;;19.36;28.91;97852.81;4989015;28;20046;-81
2022/05/15 09:14:53;;;;;;;0.70;0.70;;;;;;;19.73;29.05;97859.38;4988921;28;20477;-82
2022/05/15 09:17:45;;;;;;;0.70;0.70;;;;;;;19.90;28.41;97853.78;4988878;28;20690;-80
2022/05/15 09:20:38;;;;;;;0.70;0.70;;;;;;;20.31;28.82;97845.88;4971237;28;20050;-81
2022/05/15 09:23:20;;;;;;;0.80;0.80;;;;;;;20.97;27.70;97845.03;4955171;28;20051;-82
2022/05/15 09:25:56;;;;;;;0.70;0.70;;;;;;;21.53;27.38;97842.56;4969412;28;20042;-81
2022/05/15 09:28:26;;;;;;;0.70;0.70;;;;;;;21.74;27.68;97830.63;4984903;28;20469;-81
2022/05/15 09:30:56;;;;;;;0.60;0.60;;;;;;;21.16;28.24;97833.50;4988553;28;20054;-81
2022/05/15 09:33:35;;;;;;;0.63;0.63;;;;;;;21.27;28.80;97839.31;4970898;28;20588;-82
2022/05/15 09:36:20;;;;;;;0.50;0.50;;;;;;;21.12;28.54;97846.31;4986131;28;20050;-83
2022/05/15 09:38:50;;;;;;;0.60;0.60;;;;;;;20.84;30.48;97836.00;4986719;28;20058;-82
2022/05/15 09:44:33;;;;;;;0.70;0.70;;;;;;;21.01;30.22;97851.44;4984026;28;20050;-83
2022/05/15 09:47:18;;;;;;;0.40;0.40;;;;;;;19.84;30.84;97848.84;4988261;28;20208;-81
2022/05/15 09:49:46;;;;;;;0.40;0.40;;;;;;;19.52;31.42;97850.31;4986407;28;20057;-80
2022/05/15 09:52:26;;;;;;;0.50;0.50;;;;;;;20.18;30.00;97850.50;4986742;28;20421;-82
2022/05/15 09:55:07;;;;;;;0.40;0.40;;;;;;;19.77;30.45;97848.56;5001757;28;20540;-84
2022/05/15 09:57:35;;;;;;;0.60;0.60;;;;;;;19.80;30.27;97853.34;4987395;28;20141;-82
2022/05/15 10:00:07;;;;;;;0.40;0.40;;;;;;;19.60;30.45;97844.78;4986427;28;20162;-82
2022/05/15 10:02:48;;;;;;;0.40;0.40;;;;;;;18.83;31.54;97853.03;4987292;28;20042;-82
2022/05/15 10:05:20;;;;;;;0.40;0.40;;;;;;;18.18;32.08;97837.72;4986468;28;20133;-82
2022/05/15 10:08:24;;;;;;;0.60;0.60;;;;;;;18.49;31.64;97823.84;4987407;28;20050;-82
2022/05/15 10:11:08;;;;;;;0.60;0.60;;;;;;;19.89;29.95;97852.16;4987885;28;20050;-83
2022/05/15 10:13:35;;;;;;;0.30;0.30;;;;;;;19.31;30.16;97845.59;4987670;28;20366;-83
2022/05/15 10:16:38;;;;;;;0.30;0.30;;;;;;;18.03;32.28;97855.41;4987859;28;20100;-82
2022/05/15 10:19:14;;;;;;;0.30;0.30;;;;;;;16.69;35.01;97835.75;4929639;29;20055;-81
2022/05/15 10:21:44;;;;;;;0.30;0.30;;;;;;;16.02;36.55;97867.31;4944574;28;20050;-83
2022/05/15 10:24:15;;;;;;;0.30;0.30;;;;;;;15.50;37.72;97883.13;4974459;28;20498;-82
2022/05/15 10:26:42;;;;;;;0.30;0.30;;;;;;;15.29;40.55;97882.75;4950101;28;20596;-82
2022/05/15 10:29:20;;;;;;;0.40;0.40;;;;;;;15.49;40.62;97892.38;4960074;28;20517;-84
2022/05/15 10:31:56;;;;;;;0.40;0.40;;;;;;;15.65;39.18;97882.00;4951560;28;20058;-83
2022/05/15 10:34:26;;;;;;;0.40;0.40;;;;;;;16.02;35.34;97856.44;4967466;28;20059;-82
2022/05/15 10:37:33;;;;;;;0.50;0.50;;;;;;;16.95;36.13;97865.88;4919522;29;20043;-83
2022/05/15 10:40:31;;;;;;;0.60;0.60;;;;;;;18.22;33.69;97868.72;4942385;28;20154;-83
2022/05/15 10:43:16;;;;;;;0.50;0.50;;;;;;;19.43;32.68;97870.31;4949332;28;20552;-83
2022/05/15 10:46:04;;;;;;;0.40;0.40;;;;;;;19.08;32.37;97847.78;4941148;28;20071;-82
2022/05/15 10:48:57;;;;;;;0.40;0.40;;;;;;;18.62;33.60;97866.56;4953992;28;20552;-84
2022/05/15 10:51:33;;;;;;;0.30;0.30;;;;;;;18.38;33.99;97861.63;4969534;28;20109;-84
2022/05/15 10:57:25;;;;;;;0.30;0.30;;;;;;;17.63;35.15;97863.66;4989761;28;20062;-82
2022/05/15 11:00:08;;;;;;;0.40;0.40;;;;;;;17.65;34.97;97868.81;4982355;28;20556;-83
2022/05/15 11:03:04;;;;;;;0.32;0.32;;;;;;;17.68;35.45;97868.97;4982596;28;20053;-85
2022/05/15 11:05:31;;;;;;;0.40;0.40;;;;;;;17.62;35.16;97862.03;4911782;29;20519;-85
2022/05/15 11:08:24;;;;;;;0.40;0.40;;;;;;;17.64;35.21;97856.28;4908420;29;20095;-84
2022/05/15 11:11:22;;;;;;;0.45;0.45;;;;;;;17.98;35.65;97863.75;4907036;29;20167;-85
2022/05/15 11:14:29;;;;;;;0.35;0.35;;;;;;;18.38;34.79;97861.63;4911789;29;20044;-84
2022/05/15 11:17:25;;;;;;;0.30;0.30;;;;;;;17.86;35.91;97860.84;4892994;29;20048;-84
2022/05/15 11:19:54;;;;;;;0.30;0.30;;;;;;;16.87;37.48;97850.28;4889629;29;20070;-87
2022/05/15 11:22:41;;;;;;;0.30;0.30;;;;;;;16.16;38.89;97867.28;4876831;29;20057;-84
2022/05/15 11:25:21;;;;;;;0.30;0.30;;;;;;;15.38;40.07;97853.75;4864954;29;20094;-84
2022/05/15 11:27:55;;;;;;;0.40;0.40;;;;;;;15.20;41.27;97865.53;4890753;29;20057;-86
2022/05/15 11:30:29;;;;;;;0.35;0.35;;;;;;;14.86;41.48;97865.91;4889991;29;20049;-86
2022/05/15 11:32:58;;;;;;;0.30;0.30;;;;;;;14.45;42.51;97866.59;4879881;29;20057;-87
2022/05/15 11:35:33;;;;;;;0.40;0.40;;;;;;;14.30;43.24;97873.09;4889906;29;20532;-85
2022/05/15 11:38:07;;;;;;;0.50;0.50;;;;;;;14.49;42.56;97886.63;4870413;29;20092;-85
2022/05/15 11:40:47;;;;;;;1.00;1.00;;;;;;;16.54;39.31;97874.28;4887891;29;20489;-86
2022/05/15 11:43:26;;;;;;;1.00;1.00;;;;;;;19.38;36.09;97877.91;4943212;29;20512;-86
2022/05/15 11:45:58;;;;;;;0.50;0.50;;;;;;;19.01;34.75;97864.69;4925482;29;20530;-86
2022/05/15 11:48:31;;;;;;;0.40;0.40;;;;;;;17.93;34.95;97866.63;4923637;29;20519;-84
2022/05/15 11:51:01;;;;;;;0.50;0.50;;;;;;;17.22;36.80;97874.97;4898678;29;20686;-85
2022/05/15 11:53:48;;;;;;;0.70;0.70;;;;;;;17.58;35.66;97858.38;4969507;28;20133;-85
2022/05/15 11:56:26;;;;;;;0.55;0.55;;;;;;;19.64;32.84;97873.06;5004046;23;20535;-86
2022/05/15 11:58:58;;;;;;;0.40;0.40;;;;;;;18.90;33.89;97865.41;5008865;28;20054;-86
2022/05/15 12:01:31;;;;;;;0.30;0.30;;;;;;;18.97;34.14;97858.31;4967650;28;20058;-85
2022/05/15 12:04:04;;;;;;;0.30;0.30;;;;;;;18.38;34.88;97867.09;4992742;28;20057;-85
2022/05/15 12:06:44;;;;;;;0.30;0.30;;;;;;;17.64;35.91;97857.09;4993565;28;20086;-86
2022/05/15 12:09:16;;;;;;;0.30;0.30;;;;;;;16.98;36.53;97875.34;4994176;28;20054;-82
2022/05/15 12:11:45;;;;;;;0.30;0.30;;;;;;;16.57;37.87;97879.09;5010594;28;20053;-83
2022/05/15 12:14:21;;;;;;;0.30;0.30;;;;;;;15.89;40.17;97900.81;5022805;28;20045;-82
2022/05/15 12:16:51;;;;;;;0.38;0.38;;;;;;;14.97;43.51;97891.78;5031806;28;20046;-83
2022/05/15 12:19:39;;;;;;;0.40;0.40;;;;;;;14.47;45.29;97905.94;5032428;28;20050;-84